Time;durP1;ratioP1;P1;durP2;ratioP2;P2;SDS_P1;SDS_P2;PMS_P1;PMS_P2;Temp;Humidity;BMP_temperature;BMP_pressure;BME280_temperature;BME280_humidity;BME280_pressure;Samples;Min_cycle;Max_cycle;Signal;HPM_P1;HPM_P2
2021/06/04 00:00:35;;;;;;;;;10.00;10.00;;;;;21.64;55.72;101473.41;5123415;27;45240;-46
2021/06/04 00:03:24;;;;;;;;;12.25;12.00;;;;;21.59;55.71;101464.75;5123358;27;45253;-49
2021/06/04 00:05:52;;;;;;;;;11.75;11.50;;;;;21.66;55.41;101466.19;5122867;27;45288;-46
2021/06/04 00:08:19;;;;;;;;;10.75;10.00;;;;;21.67;55.39;101464.38;5123341;27;45411;-45
2021/06/04 00:10:54;;;;;;;;;12.25;11.00;;;;;21.69;55.67;101470.53;5103897;27;45353;-46
2021/06/04 00:13:25;;;;;;;;;12.50;11.50;;;;;21.71;55.18;101474.84;5115523;27;45420;-44
2021/06/04 00:15:55;;;;;;;;;11.00;10.00;;;;;21.74;55.79;101477.38;5123404;27;45434;-46
2021/06/04 00:18:21;;;;;;;;;11.25;9.50;;;;;21.78;55.86;101477.22;5122924;27;45310;-46
2021/06/04 00:20:46;;;;;;;;;10.75;10.25;;;;;21.80;55.33;101480.69;5123150;27;46049;-49
2021/06/04 00:23:12;;;;;;;;;11.25;10.75;;;;;21.82;55.86;101498.38;5123163;27;45321;-45
2021/06/04 00:25:37;;;;;;;;;9.50;9.50;;;;;21.80;55.50;101494.06;5123229;27;45196;-48
2021/06/04 00:28:04;;;;;;;;;13.75;11.25;;;;;21.81;55.73;101498.47;5123045;27;45499;-46
2021/06/04 00:30:29;;;;;;;;;10.75;10.00;;;;;21.81;55.32;101493.13;5121664;27;47341;-47
2021/06/04 00:32:55;;;;;;;;;13.00;10.75;;;;;21.87;55.70;101511.53;5122860;27;45168;-46
2021/06/04 00:35:22;;;;;;;;;13.00;11.50;;;;;21.87;55.24;101503.50;5123264;27;45397;-49
2021/06/04 00:37:48;;;;;;;;;11.75;11.00;;;;;21.88;55.60;101500.75;5122757;27;45342;-46
2021/06/04 00:40:19;;;;;;;;;10.25;9.25;;;;;21.92;55.63;101498.78;5122576;27;46596;-48
2021/06/04 00:42:45;;;;;;;;;11.00;11.00;;;;;21.96;55.55;101488.81;5122738;27;45454;-47
2021/06/04 00:45:16;;;;;;;;;8.00;8.00;;;;;22.01;55.08;101494.78;5122986;27;45547;-44
2021/06/04 00:47:42;;;;;;;;;8.75;8.50;;;;;22.03;55.61;101496.44;5122688;27;45372;-44
2021/06/04 00:50:11;;;;;;;;;12.50;9.50;;;;;22.06;55.27;101498.09;5122640;27;45354;-48
2021/06/04 00:52:38;;;;;;;;;12.00;12.00;;;;;22.07;55.55;101502.50;5122484;27;45325;-49
2021/06/04 00:55:10;;;;;;;;;12.75;11.25;;;;;22.11;55.40;101513.94;5122546;27;45323;-47
2021/06/04 00:57:36;;;;;;;;;11.00;11.00;;;;;22.13;56.27;101522.75;5122221;27;45558;-49
2021/06/04 01:00:06;;;;;;;;;15.00;15.00;;;;;22.11;55.77;101524.63;5122309;27;46673;-51
2021/06/04 01:02:32;;;;;;;;;13.50;13.50;;;;;22.10;56.03;101529.13;5122355;27;45162;-49
2021/06/04 01:04:58;;;;;;;;;19.00;18.25;;;;;22.05;56.71;101536.53;5122608;27;45257;-44
2021/06/04 01:07:31;;;;;;;;;16.75;16.00;;;;;21.92;57.67;101545.16;5122315;27;45211;-52
2021/06/04 01:10:06;;;;;;;;;17.50;16.25;;;;;21.78;58.33;101550.31;5110049;27;45899;-51
2021/06/04 01:12:38;;;;;;;;;16.50;16.25;;;;;21.61;58.65;101540.44;5107496;27;45308;-47
2021/06/04 01:15:10;;;;;;;;;23.00;22.50;;;;;21.57;58.62;101546.84;5103629;27;45435;-51
2021/06/04 01:18:06;;;;;;;;;21.50;20.25;;;;;21.56;58.67;101535.31;5121019;27;45361;-50
2021/06/04 01:20:45;;;;;;;;;21.25;20.50;;;;;21.56;58.76;101539.78;5122092;27;47229;-50
2021/06/04 01:23:58;;;;;;;;;24.00;20.50;;;;;21.59;59.39;101543.16;5122130;27;45474;-50
2021/06/04 01:26:39;;;;;;;;;20.50;18.00;;;;;21.60;59.33;101538.69;5058817;27;45306;-52
2021/06/04 01:29:10;;;;;;;;;20.50;19.75;;;;;21.52;59.62;101530.13;5121983;27;45442;-48
2021/06/04 01:31:49;;;;;;;;;21.00;20.00;;;;;21.51;59.20;101523.94;5103308;27;45547;-51
2021/06/04 01:34:17;;;;;;;;;23.75;22.50;;;;;21.52;59.32;101527.47;5121980;27;45229;-50
2021/06/04 01:36:50;;;;;;;;;20.75;19.75;;;;;21.56;59.58;101534.44;5122048;27;45489;-51
2021/06/04 01:39:25;;;;;;;;;18.00;17.50;;;;;21.59;59.33;101531.63;5121815;27;45333;-51
2021/06/04 01:41:51;;;;;;;;;24.25;20.00;;;;;21.59;59.22;101526.28;5102875;27;47288;-50
2021/06/04 01:44:23;;;;;;;;;23.50;23.00;;;;;21.55;59.81;101516.63;5121681;27;45333;-50
2021/06/04 01:46:53;;;;;;;;;23.50;17.75;;;;;21.51;59.84;101505.22;5103390;27;45432;-48
2021/06/04 01:49:25;;;;;;;;;21.25;20.25;;;;;21.53;59.89;101505.13;5121598;27;45495;-48
2021/06/04 01:51:56;;;;;;;;;23.25;20.25;;;;;21.54;59.33;101510.41;5121615;27;45492;-49
2021/06/04 01:54:27;;;;;;;;;20.25;20.25;;;;;21.52;60.00;101508.75;5121447;27;45258;-49
2021/06/04 01:57:01;;;;;;;;;25.50;23.50;;;;;21.56;59.58;101495.19;5121807;27;45335;-49
2021/06/04 01:59:31;;;;;;;;;25.00;21.50;;;;;21.55;59.51;101489.91;5121556;27;45291;-51
2021/06/04 02:01:57;;;;;;;;;25.25;25.00;;;;;21.59;59.50;101492.34;5121470;27;46498;-49
2021/06/04 02:04:37;;;;;;;;;25.00;23.75;;;;;21.60;59.88;101493.25;5121395;27;45200;-46
2021/06/04 02:07:06;;;;;;;;;30.00;25.25;;;;;21.61;59.55;101494.97;5121606;27;45367;-50
2021/06/04 02:09:31;;;;;;;;;29.50;26.25;;;;;21.60;59.83;101501.25;5112860;27;45449;-48
2021/06/04 02:11:56;;;;;;;;;24.50;23.25;;;;;21.61;59.38;101503.00;5101622;27;46024;-46
2021/06/04 02:14:27;;;;;;;;;24.50;23.50;;;;;21.63;59.61;101497.56;5121608;27;45182;-48
2021/06/04 02:17:11;;;;;;;;;27.50;24.50;;;;;21.63;59.59;101502.91;5103404;27;45320;-51
2021/06/04 02:20:01;;;;;;;;;21.50;19.00;;;;;21.66;60.00;101517.00;5121267;27;45331;-50
2021/06/04 02:22:35;;;;;;;;;24.25;22.50;;;;;21.66;60.10;101524.16;5121319;27;45266;-49
2021/06/04 02:25:11;;;;;;;;;24.50;23.25;;;;;21.64;59.83;101518.88;5121039;27;45373;-50
2021/06/04 02:27:43;;;;;;;;;27.50;25.25;;;;;21.68;60.33;101520.47;5121303;27;45453;-48
2021/06/04 02:30:15;;;;;;;;;23.25;20.00;;;;;21.70;59.57;101526.59;5120658;27;45406;-52
2021/06/04 02:32:50;;;;;;;;;25.50;25.25;;;;;21.73;60.06;101531.78;5102456;27;46313;-49
2021/06/04 02:35:27;;;;;;;;;28.25;26.00;;;;;21.72;60.00;101535.44;5121234;27;45272;-48
2021/06/04 02:37:58;;;;;;;;;29.50;25.25;;;;;21.72;59.91;101546.13;5120989;27;45378;-51
2021/06/04 02:40:30;;;;;;;;;28.50;26.25;;;;;21.70;59.82;101541.81;5120862;27;45226;-50
2021/06/04 02:43:06;;;;;;;;;26.75;23.75;;;;;21.64;60.25;101542.09;5120820;27;45341;-51
2021/06/04 02:45:39;;;;;;;;;26.00;26.00;;;;;21.55;60.32;101544.25;5121100;27;45224;-47
2021/06/04 02:48:13;;;;;;;;;27.75;24.75;;;;;21.42;60.69;101565.34;5121023;27;45460;-49
2021/06/04 02:50:40;;;;;;;;;27.00;24.25;;;;;21.34;60.89;101615.59;5120955;27;45573;-50
2021/06/04 02:53:24;;;;;;;;;29.75;23.50;;;;;21.14;61.63;101642.38;5120857;27;46308;-49
2021/06/04 02:56:04;;;;;;;;;30.00;27.00;;;;;20.87;63.30;101640.00;5120610;27;45297;-50
2021/06/04 02:58:29;;;;;;;;;22.00;21.25;;;;;20.61;77.04;101612.56;5120736;27;45304;-46
2021/06/04 03:00:55;;;;;;;;;30.00;26.00;;;;;21.11;81.42;101552.53;5120698;27;45222;-45
2021/06/04 03:03:20;;;;;;;;;21.50;21.25;;;;;21.47;80.87;101540.19;5120642;27;45976;-48
2021/06/04 03:05:46;;;;;;;;;25.50;23.00;;;;;21.62;80.25;101523.44;5120704;27;45398;-47
2021/06/04 03:08:11;;;;;;;;;22.00;21.25;;;;;21.72;80.04;101514.03;5120834;27;45473;-49
2021/06/04 03:10:44;;;;;;;;;19.75;17.50;;;;;21.72;78.52;101492.66;5102202;27;45469;-48
2021/06/04 03:13:14;;;;;;;;;22.50;18.75;;;;;21.73;78.01;101490.81;5111301;27;45501;-48
2021/06/04 03:15:48;;;;;;;;;15.75;15.75;;;;;21.69;76.93;101476.72;5120529;27;45488;-45
2021/06/04 03:18:19;;;;;;;;;20.25;18.75;;;;;21.68;74.57;101476.81;5120464;27;45315;-45
2021/06/04 03:20:46;;;;;;;;;17.00;16.00;;;;;21.63;73.74;101465.47;5120678;27;45244;-45
2021/06/04 03:23:17;;;;;;;;;18.25;17.25;;;;;21.58;73.19;101473.72;5120308;27;45333;-46
2021/06/04 03:25:45;;;;;;;;;21.50;17.50;;;;;21.55;71.43;101474.75;5120281;27;45246;-47
2021/06/04 03:28:15;;;;;;;;;21.25;20.00;;;;;21.52;71.16;101464.19;5120374;27;45379;-46
2021/06/04 03:30:43;;;;;;;;;19.75;18.50;;;;;21.52;70.44;101458.81;5102552;27;45409;-44
2021/06/04 03:33:10;;;;;;;;;22.25;22.25;;;;;21.52;69.32;101460.63;5120207;27;46267;-48
2021/06/04 03:35:36;;;;;;;;;18.75;16.75;;;;;21.48;69.75;101446.53;5120469;27;45287;-49
2021/06/04 03:38:01;;;;;;;;;24.25;23.50;;;;;21.47;68.51;101443.94;5120263;27;45364;-48
2021/06/04 03:40:29;;;;;;;;;22.50;19.75;;;;;21.45;68.91;101448.50;5120312;27;45457;-45
2021/06/04 03:42:57;;;;;;;;;21.25;19.25;;;;;21.42;68.32;101445.03;5104762;27;47186;-46
2021/06/04 03:45:27;;;;;;;;;23.50;22.50;;;;;21.41;67.82;101443.31;5123813;27;45311;-46
2021/06/04 03:47:53;;;;;;;;;30.25;28.00;;;;;21.40;67.00;101438.03;5105443;27;45372;-46
2021/06/04 03:50:19;;;;;;;;;26.25;24.50;;;;;21.38;67.21;101431.88;5123640;27;45263;-45
2021/06/04 03:52:44;;;;;;;;;28.00;24.75;;;;;21.36;66.45;101413.25;5123503;27;45300;-45
2021/06/04 03:55:13;;;;;;;;;27.00;21.50;;;;;21.34;66.23;101414.28;5122145;27;45262;-44
2021/06/04 03:57:39;;;;;;;;;26.50;24.50;;;;;21.26;66.43;101411.97;5105074;27;45244;-45
2021/06/04 04:00:18;;;;;;;;;26.50;25.25;;;;;21.27;65.74;101416.38;5123428;27;45242;-47
2021/06/04 04:02:44;;;;;;;;;25.75;23.00;;;;;21.25;66.16;101420.94;5123421;27;45430;-48
2021/06/04 04:05:11;;;;;;;;;28.50;27.25;;;;;21.22;65.23;101413.03;5104897;27;45392;-47
2021/06/04 04:07:38;;;;;;;;;30.75;28.25;;;;;21.21;64.73;101422.03;5123533;27;45243;-48
2021/06/04 04:10:06;;;;;;;;;24.75;22.75;;;;;21.21;64.85;101416.69;5111016;27;45258;-47
2021/06/04 04:12:32;;;;;;;;;31.00;30.75;;;;;21.19;64.50;101419.41;5108561;27;47021;-48
2021/06/04 04:14:57;;;;;;;;;29.00;27.50;;;;;21.19;65.06;101416.72;5123242;27;45453;-47
2021/06/04 04:17:23;;;;;;;;;30.00;26.50;;;;;21.18;64.27;101423.03;5123352;27;45384;-45
2021/06/04 04:19:48;;;;;;;;;32.00;28.50;;;;;21.12;64.64;101415.31;5123270;27;45571;-45
2021/06/04 04:22:14;;;;;;;;;28.25;27.25;;;;;21.15;63.86;101428.53;5121697;27;47251;-48
2021/06/04 04:24:40;;;;;;;;;24.00;23.75;;;;;21.14;64.15;101423.25;5123030;27;45468;-47
2021/06/04 04:27:07;;;;;;;;;30.75;28.75;;;;;21.14;63.55;101424.09;5123123;27;45250;-48
2021/06/04 04:29:33;;;;;;;;;28.50;27.75;;;;;21.09;64.02;101413.66;5123150;27;45234;-46
2021/06/04 04:32:01;;;;;;;;;32.25;27.50;;;;;21.10;63.91;101403.81;5122839;27;46953;-44
2021/06/04 04:34:27;;;;;;;;;30.75;28.50;;;;;21.10;63.68;101414.53;5122992;27;45326;-49
2021/06/04 04:36:57;;;;;;;;;26.50;26.50;;;;;21.09;63.53;101412.78;5122995;27;45448;-45
2021/06/04 04:39:35;;;;;;;;;28.50;27.75;;;;;21.07;63.29;101409.34;5122715;27;45281;-45
2021/06/04 04:42:03;;;;;;;;;28.50;27.75;;;;;21.07;62.77;101412.00;5122642;27;45459;-47
2021/06/04 04:44:32;;;;;;;;;27.75;25.50;;;;;21.04;62.83;101404.13;5104469;27;45513;-46
2021/06/04 04:46:58;;;;;;;;;28.75;22.50;;;;;21.06;62.70;101412.94;5122913;27;45234;-45
2021/06/04 04:49:24;;;;;;;;;31.00;29.25;;;;;21.05;62.70;101413.88;5104267;27;45420;-45
2021/06/04 04:51:50;;;;;;;;;29.75;26.00;;;;;21.05;62.91;101411.19;5122538;27;46231;-45
2021/06/04 04:54:19;;;;;;;;;30.50;25.50;;;;;21.05;62.91;101403.19;5122828;27;45550;-47
2021/06/04 04:56:47;;;;;;;;;21.50;21.50;;;;;21.09;62.49;101416.34;5104200;27;45350;-47
2021/06/04 04:59:13;;;;;;;;;28.25;24.00;;;;;21.10;62.63;101411.84;5122617;27;45168;-45
2021/06/04 05:01:38;;;;;;;;;28.75;25.00;;;;;21.08;62.74;101385.22;5122476;27;45481;-44
2021/06/04 05:04:04;;;;;;;;;22.00;21.00;;;;;21.14;62.52;101396.53;5103985;27;45698;-46
2021/06/04 05:06:30;;;;;;;;;28.25;25.00;;;;;21.15;62.20;101387.59;5122693;27;45202;-44
2021/06/04 05:08:55;;;;;;;;;29.75;24.75;;;;;21.16;62.51;101381.31;5119554;27;45363;-44
2021/06/04 05:11:21;;;;;;;;;23.50;22.00;;;;;21.17;61.71;101378.56;5101467;27;45850;-47
2021/06/04 05:13:47;;;;;;;;;24.75;20.75;;;;;21.19;62.02;101395.34;5099788;27;45363;-46
2021/06/04 05:16:12;;;;;;;;;27.50;24.00;;;;;21.17;62.12;101418.63;5122521;27;45389;-45
2021/06/04 05:18:38;;;;;;;;;24.50;21.50;;;;;21.23;61.75;101505.66;5122157;27;45620;-45
2021/06/04 05:21:07;;;;;;;;;28.75;27.50;;;;;21.14;62.28;101519.44;5122315;27;45427;-46
2021/06/04 05:23:33;;;;;;;;;24.75;23.75;;;;;21.03;62.39;101510.13;5122112;27;45165;-58
2021/06/04 05:25:58;;;;;;;;;24.00;21.75;;;;;20.93;62.36;101524.84;5122005;27;45483;-57
2021/06/04 05:28:26;;;;;;;;;24.50;23.25;;;;;20.89;62.00;101564.19;5114192;27;45492;-45
2021/06/04 05:30:56;;;;;;;;;28.50;26.00;;;;;20.81;62.18;101579.69;5101586;27;46345;-47
2021/06/04 05:33:25;;;;;;;;;14.25;13.75;;;;;20.71;62.76;101599.72;5109945;27;45462;-49
2021/06/04 05:35:51;;;;;;;;;8.75;7.25;;;;;20.59;63.38;101630.44;5120960;27;45396;-50
2021/06/04 05:38:17;;;;;;;;;8.00;6.00;;;;;20.35;63.50;101635.00;5112037;27;45325;-46
2021/06/04 05:40:46;;;;;;;;;4.00;3.00;;;;;20.08;63.42;101619.19;5098839;27;47083;-45
2021/06/04 05:43:18;;;;;;;;;6.00;5.25;;;;;20.01;63.51;101615.88;5119263;27;45316;-50
2021/06/04 05:45:45;;;;;;;;;3.75;3.25;;;;;19.84;63.29;101607.72;5112822;27;45314;-46
2021/06/04 05:48:12;;;;;;;;;6.50;5.75;;;;;19.68;63.54;101578.06;5120479;27;45531;-44
2021/06/04 05:50:41;;;;;;;;;5.25;5.25;;;;;19.51;63.54;101578.72;5120733;27;45280;-47
2021/06/04 05:53:08;;;;;;;;;6.50;6.25;;;;;19.33;63.93;101557.16;5120127;27;45451;-53
2021/06/04 05:55:36;;;;;;;;;5.50;4.00;;;;;19.16;64.22;101516.06;5119452;27;45485;-50
2021/06/04 05:58:05;;;;;;;;;6.00;6.00;;;;;19.03;64.57;101528.13;5120740;27;45291;-46
2021/06/04 06:00:35;;;;;;;;;6.00;6.00;;;;;18.94;64.46;101528.44;5119471;27;45422;-49
2021/06/04 06:03:02;;;;;;;;;5.00;5.00;;;;;18.89;64.62;101541.03;5109561;27;45545;-48
2021/06/04 06:05:27;;;;;;;;;7.00;6.75;;;;;18.87;64.74;101558.84;5120689;27;45198;-49
2021/06/04 06:07:53;;;;;;;;;8.00;6.50;;;;;18.85;64.53;101564.22;5101759;27;45596;-48
2021/06/04 06:10:18;;;;;;;;;6.00;6.00;;;;;18.86;64.70;101576.63;5113394;27;46113;-47
2021/06/04 06:12:44;;;;;;;;;9.00;7.50;;;;;18.84;64.36;101571.34;5115486;27;45400;-55
2021/06/04 06:15:10;;;;;;;;;9.00;8.75;;;;;18.87;64.53;101569.50;5123139;27;45638;-47
2021/06/04 06:17:36;;;;;;;;;5.00;5.00;;;;;18.88;64.71;101566.78;5121211;27;45327;-47
2021/06/04 06:20:07;;;;;;;;;8.75;8.50;;;;;18.87;64.97;101567.72;5120797;27;46468;-50
2021/06/04 06:22:33;;;;;;;;;7.75;7.75;;;;;18.89;64.81;101549.00;5101399;27;45420;-52
2021/06/04 06:24:58;;;;;;;;;8.00;8.00;;;;;18.90;64.83;101537.44;5098813;27;45895;-51
2021/06/04 06:27:24;;;;;;;;;7.75;7.50;;;;;18.93;64.93;101524.91;5100476;27;45386;-51
2021/06/04 06:29:49;;;;;;;;;6.50;6.50;;;;;18.93;65.00;101514.25;5100510;27;46012;-51
2021/06/04 06:32:20;;;;;;;;;8.75;8.00;;;;;18.97;64.86;101515.03;5108510;27;45270;-47
2021/06/04 06:34:46;;;;;;;;;6.25;6.25;;;;;19.00;64.96;101514.91;5100691;27;45316;-48
2021/06/04 06:37:11;;;;;;;;;6.25;5.00;;;;;18.97;64.62;101491.91;5102740;27;45261;-50
2021/06/04 06:39:37;;;;;;;;;6.00;6.00;;;;;19.03;64.91;101509.47;5100064;27;46089;-49
2021/06/04 06:42:05;;;;;;;;;7.00;7.00;;;;;19.06;65.16;101532.47;5113509;27;45251;-52
2021/06/04 06:44:32;;;;;;;;;10.00;7.00;;;;;19.04;65.17;101520.97;5100354;27;45200;-50
2021/06/04 06:46:58;;;;;;;;;6.00;6.00;;;;;19.08;65.15;101528.81;5100097;27;45327;-49
2021/06/04 06:49:25;;;;;;;;;6.00;6.00;;;;;19.08;65.13;101519.94;5100258;27;45419;-52
2021/06/04 06:51:51;;;;;;;;;5.00;5.00;;;;;19.08;65.18;101519.94;5081568;27;45287;-48
2021/06/04 06:54:21;;;;;;;;;6.75;6.00;;;;;19.10;64.89;101526.09;5099918;27;45284;-52
2021/06/04 06:56:51;;;;;;;;;7.00;7.00;;;;;19.12;64.78;101546.41;5099916;27;45394;-50
2021/06/04 06:59:17;;;;;;;;;12.00;10.00;;;;;19.14;65.15;101560.56;5099751;27;46070;-52
2021/06/04 07:01:42;;;;;;;;;8.00;7.50;;;;;19.16;64.79;101555.16;5100121;27;45185;-49
2021/06/04 07:04:08;;;;;;;;;9.00;8.00;;;;;19.26;64.63;101567.19;5099984;27;45823;-49
2021/06/04 07:06:36;;;;;;;;;9.00;9.00;;;;;19.29;65.25;101563.56;5100163;27;45218;-48
2021/06/04 07:09:05;;;;;;;;;7.25;6.25;;;;;19.40;65.30;101555.16;5114304;27;46210;-47
2021/06/04 07:11:35;;;;;;;;;8.00;7.00;;;;;19.48;65.34;101556.59;5108783;27;45186;-48
2021/06/04 07:14:01;;;;;;;;;8.75;8.50;;;;;19.54;64.95;101549.28;5115764;27;45439;-50
2021/06/04 07:16:26;;;;;;;;;7.25;7.25;;;;;19.66;65.48;101559.47;5123488;27;45483;-47
2021/06/04 07:18:52;;;;;;;;;13.75;13.00;;;;;19.73;65.71;101562.75;5103376;27;46124;-49
2021/06/04 07:21:21;;;;;;;;;11.75;9.75;;;;;19.83;65.50;101566.81;5115241;27;45414;-47
2021/06/04 07:23:48;;;;;;;;;8.00;8.00;;;;;19.91;65.64;101561.19;5121136;27;45441;-49
2021/06/04 07:26:14;;;;;;;;;11.25;9.00;;;;;20.01;65.33;101553.69;5106219;27;45264;-50
2021/06/04 07:28:40;;;;;;;;;10.25;9.00;;;;;20.10;65.37;101548.84;5084828;27;45498;-47
2021/06/04 07:31:13;;;;;;;;;7.00;6.25;;;;;20.20;65.51;101554.66;5103351;27;45343;-51
2021/06/04 07:33:51;;;;;;;;;8.75;8.00;;;;;20.30;65.57;101553.34;5103473;27;45228;-48
2021/06/04 07:36:27;;;;;;;;;13.00;8.00;;;;;20.39;65.75;101546.75;5103201;27;45412;-48
2021/06/04 07:38:54;;;;;;;;;8.00;8.00;;;;;20.48;65.58;101556.16;5103216;27;46357;-51
2021/06/04 07:41:20;;;;;;;;;8.25;6.50;;;;;20.58;65.32;101548.63;5103166;27;45413;-50
2021/06/04 07:43:47;;;;;;;;;9.00;7.50;;;;;20.62;65.61;101542.19;5103205;27;45383;-54
2021/06/04 07:46:16;;;;;;;;;6.75;6.75;;;;;20.73;64.95;101547.97;5103161;27;45449;-50
2021/06/04 07:48:42;;;;;;;;;9.00;9.00;;;;;20.83;65.00;101555.56;5084540;27;47786;-52
2021/06/04 07:51:11;;;;;;;;;13.00;9.00;;;;;20.88;65.12;101553.56;5101579;27;45562;-50
2021/06/04 07:53:39;;;;;;;;;8.00;7.50;;;;;20.97;65.11;101554.94;5084840;27;45554;-51
2021/06/04 07:56:05;;;;;;;;;9.25;8.00;;;;;21.02;65.15;101551.16;5084694;27;45282;-47
2021/06/04 07:58:30;;;;;;;;;7.75;6.00;;;;;21.07;65.25;101543.78;5102821;27;46140;-52
2021/06/04 08:00:56;;;;;;;;;9.00;7.00;;;;;21.11;64.98;101540.03;5102746;27;45298;-47
2021/06/04 08:03:25;;;;;;;;;6.25;6.25;;;;;21.18;64.40;101550.44;5103144;27;45308;-47
2021/06/04 08:05:50;;;;;;;;;8.25;7.75;;;;;21.22;64.93;101539.53;5102896;27;45299;-49
2021/06/04 08:08:16;;;;;;;;;10.25;8.75;;;;;21.24;64.90;101534.13;5102725;27;46193;-48
2021/06/04 08:10:43;;;;;;;;;8.75;8.75;;;;;21.31;64.34;101524.88;5102627;27;45326;-48
2021/06/04 08:13:14;;;;;;;;;9.75;7.25;;;;;21.33;64.39;101517.63;5112792;27;45348;-51
2021/06/04 08:15:44;;;;;;;;;9.00;7.00;;;;;21.40;64.28;101523.56;5123192;27;45322;-47
2021/06/04 08:18:10;;;;;;;;;9.75;8.50;;;;;21.47;64.62;101524.16;5122910;27;46366;-49
2021/06/04 08:20:37;;;;;;;;;6.00;6.00;;;;;21.54;64.00;101525.59;5118439;27;45459;-51
2021/06/04 08:23:13;;;;;;;;;9.75;9.75;;;;;21.57;64.27;101522.78;5084230;27;45331;-51
2021/06/04 08:25:43;;;;;;;;;11.25;9.25;;;;;21.67;64.64;101524.09;5102368;27;45372;-50
2021/06/04 08:28:09;;;;;;;;;10.00;8.50;;;;;21.75;64.02;101521.91;5101805;27;45271;-51
2021/06/04 08:30:35;;;;;;;;;11.25;10.00;;;;;21.87;64.53;101523.13;5102496;27;45356;-48
2021/06/04 08:33:02;;;;;;;;;10.00;8.25;;;;;21.96;63.93;101523.59;5102628;27;45228;-50
2021/06/04 08:35:29;;;;;;;;;7.75;5.25;;;;;22.09;64.05;101527.41;5109460;27;45480;-56
2021/06/04 08:37:55;;;;;;;;;9.75;7.50;;;;;22.22;63.98;101538.34;5104275;27;46926;-50
2021/06/04 08:40:27;;;;;;;;;5.75;5.75;;;;;22.32;64.15;101539.59;5104340;27;45455;-47
2021/06/04 08:43:13;;;;;;;;;5.00;5.00;;;;;22.43;63.80;101541.78;5122886;27;45398;-46
2021/06/04 08:46:11;;;;;;;;;5.00;5.00;;;;;22.54;63.55;101543.88;5122240;27;45470;-49
2021/06/04 08:49:01;;;;;;;;;7.50;6.75;;;;;22.65;63.43;101529.94;5111564;27;46268;-47
2021/06/04 08:51:36;;;;;;;;;4.50;4.00;;;;;22.74;63.55;101529.44;5122428;27;46072;-51
2021/06/04 08:54:09;;;;;;;;;7.00;7.00;;;;;22.84;63.24;101527.13;5122913;27;45436;-47
2021/06/04 08:56:56;;;;;;;;;6.75;6.75;;;;;22.94;63.53;101539.06;5122894;27;45488;-49
2021/06/04 08:59:22;;;;;;;;;10.50;8.75;;;;;23.04;63.25;101534.09;5122518;27;47014;-50
2021/06/04 09:01:57;;;;;;;;;6.00;6.00;;;;;23.17;63.16;101532.53;5104002;27;45407;-48
2021/06/04 09:04:47;;;;;;;;;7.25;6.75;;;;;23.25;63.04;101526.72;5104169;27;45374;-48
2021/06/04 09:07:33;;;;;;;;;7.00;5.75;;;;;23.34;62.85;101536.06;5122431;27;45386;-51
2021/06/04 09:10:36;;;;;;;;;11.00;9.00;;;;;23.45;62.57;101535.50;5122071;27;45399;-50
2021/06/04 09:13:23;;;;;;;;;6.25;6.25;;;;;23.51;62.12;101529.78;5121681;27;45303;-50
2021/06/04 09:15:58;;;;;;;;;5.00;5.00;;;;;23.56;62.64;101526.81;5122408;27;45506;-47
2021/06/04 09:18:52;;;;;;;;;5.00;5.00;;;;;23.62;62.33;101532.72;5122079;27;45186;-50
2021/06/04 09:21:23;;;;;;;;;7.25;7.00;;;;;23.68;61.99;101540.44;5108242;27;46184;-51
2021/06/04 09:23:51;;;;;;;;;6.00;4.75;;;;;23.74;62.17;101543.72;5101335;27;45322;-49
2021/06/04 09:26:18;;;;;;;;;8.75;8.75;;;;;23.78;61.96;101543.41;5101535;27;45239;-51
2021/06/04 09:28:47;;;;;;;;;7.75;7.75;;;;;23.89;62.13;101545.50;5101272;27;45528;-51
2021/06/04 09:31:21;;;;;;;;;7.00;6.75;;;;;23.96;61.69;101543.34;5083110;27;46157;-49
2021/06/04 09:33:54;;;;;;;;;9.75;8.75;;;;;24.05;61.71;101545.50;5101387;27;45362;-52
2021/06/04 09:36:25;;;;;;;;;8.75;8.50;;;;;24.13;61.56;101547.75;5101539;27;45295;-51
2021/06/04 09:39:23;;;;;;;;;9.00;9.00;;;;;24.20;61.49;101543.75;5098990;27;45278;-51
2021/06/04 09:41:50;;;;;;;;;6.75;6.75;;;;;24.24;61.43;101547.09;5100388;27;45324;-52
2021/06/04 09:44:21;;;;;;;;;9.75;8.25;;;;;24.31;61.38;101552.03;5101273;27;45621;-50
2021/06/04 09:47:11;;;;;;;;;7.00;6.00;;;;;24.39;61.36;101562.31;5101353;27;45275;-50
2021/06/04 09:49:43;;;;;;;;;7.25;7.25;;;;;24.40;61.36;101561.34;5082645;27;45367;-48
2021/06/04 09:52:35;;;;;;;;;6.00;6.00;;;;;24.42;60.96;101563.94;5101130;27;45264;-49
2021/06/04 09:55:13;;;;;;;;;9.00;7.75;;;;;24.43;60.91;101563.00;5107974;27;45306;-49
2021/06/04 09:57:57;;;;;;;;;8.00;8.00;;;;;24.41;60.60;101560.38;5121487;27;45308;-52
2021/06/04 10:00:48;;;;;;;;;6.50;6.00;;;;;24.44;60.63;101568.28;5121647;27;45157;-49
2021/06/04 10:03:42;;;;;;;;;5.25;5.25;;;;;24.46;60.46;101568.16;5120873;27;46028;-51
2021/06/04 10:06:07;;;;;;;;;5.00;5.00;;;;;24.50;60.44;101580.44;5121370;27;45378;-50
2021/06/04 10:08:50;;;;;;;;;7.25;4.75;;;;;24.51;60.24;101576.81;5121645;27;45316;-52
2021/06/04 10:11:21;;;;;;;;;7.25;5.25;;;;;24.49;60.66;101565.31;5113454;27;45463;-49
2021/06/04 10:14:15;;;;;;;;;5.25;5.25;;;;;24.49;60.47;101568.84;5116106;27;46308;-50
2021/06/04 10:19:22;;;;;;;;;5.50;5.00;;;;;24.58;60.18;101575.50;5121478;27;45317;-48
2021/06/04 10:21:50;;;;;;;;;3.50;3.00;;;;;24.66;59.87;101569.69;5105795;27;45574;-51
2021/06/04 10:24:38;;;;;;;;;5.00;5.00;;;;;24.67;60.07;101580.34;5100664;27;45441;-50
2021/06/04 10:27:19;;;;;;;;;6.00;6.00;;;;;24.71;60.26;101581.00;5100555;27;45247;-50
2021/06/04 10:30:13;;;;;;;;;6.00;6.00;;;;;24.71;60.33;101581.00;5100732;27;45415;-51
2021/06/04 10:32:50;;;;;;;;;5.25;5.25;;;;;24.74;60.19;101580.84;5100414;27;45300;-49
2021/06/04 10:35:44;;;;;;;;;6.00;6.00;;;;;24.76;59.73;101578.06;5100475;27;46183;-53
2021/06/04 10:38:22;;;;;;;;;7.25;7.25;;;;;24.81;59.96;101582.16;5100568;27;45399;-51
2021/06/04 10:40:49;;;;;;;;;6.50;6.50;;;;;24.80;60.05;101585.84;5100505;27;45289;-49
2021/06/04 10:43:49;;;;;;;;;5.75;4.25;;;;;24.83;59.58;101584.78;5100205;27;45523;-51
2021/06/04 10:46:21;;;;;;;;;6.00;4.75;;;;;24.83;59.57;101587.47;5073207;27;45514;-50
2021/06/04 10:48:55;;;;;;;;;8.00;8.00;;;;;24.82;59.24;101589.28;5100506;27;45441;-50
2021/06/04 10:51:39;;;;;;;;;6.25;5.00;;;;;24.76;59.45;101589.66;5084847;27;45387;-51
2021/06/04 10:54:23;;;;;;;;;6.75;6.50;;;;;24.66;59.34;101586.66;5103834;27;45248;-51
2021/06/04 10:56:59;;;;;;;;;5.00;5.00;;;;;24.61;59.21;101591.41;5103782;27;46449;-52
2021/06/04 10:59:36;;;;;;;;;6.50;6.50;;;;;24.64;59.05;101585.91;5085435;27;45315;-52
2021/06/04 11:02:27;;;;;;;;;6.75;6.75;;;;;24.57;58.79;101579.13;5104759;27;45558;-48
2021/06/04 11:04:58;;;;;;;;;10.00;6.75;;;;;24.66;58.79;101580.44;5123983;27;45393;-51
2021/06/04 11:07:49;;;;;;;;;7.50;7.50;;;;;24.71;58.92;101586.38;5095014;27;47101;-50
2021/06/04 11:10:51;;;;;;;;;8.00;6.00;;;;;24.78;58.97;101582.38;5107178;27;45321;-52
2021/06/04 11:13:28;;;;;;;;;9.00;8.25;;;;;24.82;59.10;101586.59;5093229;27;45476;-52
2021/06/04 11:16:12;;;;;;;;;8.25;7.00;;;;;24.86;58.64;101576.53;5123840;27;45313;-49
2021/06/04 11:18:52;;;;;;;;;6.00;6.00;;;;;24.91;59.00;101568.19;5091247;27;45426;-50
2021/06/04 11:21:30;;;;;;;;;5.75;5.75;;;;;25.04;58.71;101557.53;5100630;27;45713;-48
2021/06/04 11:24:07;;;;;;;;;6.75;5.75;;;;;25.12;58.89;101561.47;5092766;27;45276;-51
2021/06/04 11:26:39;;;;;;;;;9.50;8.00;;;;;25.18;58.87;101568.25;5124112;27;45215;-51
2021/06/04 11:29:06;;;;;;;;;5.00;5.00;;;;;25.25;58.68;101566.06;5109991;27;45346;-50
2021/06/04 11:31:47;;;;;;;;;6.25;5.50;;;;;25.30;58.30;101572.03;5122625;27;45221;-48
2021/06/04 11:34:34;;;;;;;;;5.75;5.75;;;;;25.33;58.62;101569.13;5112499;27;45289;-52
2021/06/04 11:37:01;;;;;;;;;7.25;5.75;;;;;25.37;57.88;101572.50;5111738;27;45295;-52
2021/06/04 11:39:33;;;;;;;;;5.75;5.75;;;;;25.41;58.13;101566.84;5119853;27;46115;-52